• Join FlightAware (Why Join?)
  • Login
  • US Flag 
01:10AM EDT


 

Airport Tracker/Info


-or-


 

Live Flight TrackerFlight Track Log ✈ SIL4007 ✈ 04-May-2012 ✈ KEYW - KFLL

Flight Track Log - Related Links

Times and Time Zones

All times are in EDT time to prevent confusion due to time zone crossing. See the SIL4007 flight status page for this flight to view local times or setup timezone preferences in your user account.

Time Position Orientation Groundspeed Altitude Reporting Facility
EDT Latitude Longitude Course Direction KTS MPH feet Rate Location/Type
11:23AM 24.6536 -81.6560 265° West  Level FlightAware Approximate
11:24AM 24.7085 -81.6320 214° Southwest  Level FlightAware Approximate
11:25AM 24.7513 -81.5853 219° Southwest  Level FlightAware Approximate
11:26AM 24.8074 -81.5617 213° Southwest  Level FlightAware Approximate
11:27AM 24.8496 -81.5143 216° Southwest  Level FlightAware Approximate
11:28AM 24.6522 -81.6731 33° Northeast 175 201 8,400  Level Miami Center
11:29AM 24.6886 -81.6472 33° Northeast 165 190 9,300 840 Climbing Miami Center
11:30AM 24.7247 -81.6211 34° Northeast 160 184 10,100 780 Climbing Miami Center
11:31AM 24.7633 -81.5928 32° Northeast 160 184 10,900 360 Climbing Miami Center
11:32AM 24.8081 -81.5625 34° Northeast 168 193 10,900  Level Miami Center
11:33AM 24.8617 -81.5233 33° Northeast 197 227 10,900  Level Miami Center
11:34AM 24.9192 -81.4819 31° Northeast 225 259 11,000  Climbing Miami Center
11:35AM 24.9769 -81.4431 33° Northeast 240 276 11,000  Level Miami Center
11:36AM 25.0367 -81.3994 36° Northeast 246 283 11,000  Level Miami Center
11:37AM 25.0944 -81.3533 40° Northeast 246 283 11,000 -480 Level Miami Center
11:38AM 25.1461 -81.3047 41° Northeast 246 283 10,100 -960 Descending Miami Center
11:39AM 25.2019 -81.2517 42° Northeast 246 283 9,100 -600 Descending Miami Center
11:40AM 25.2514 -81.2031 41° Northeast 239 275 9,000 -60 Descending Miami Center
11:41AM 25.3031 -81.1542 41° Northeast 239 275 9,000  Level Miami Center
11:42AM 25.3544 -81.1056 42° Northeast 239 275 9,000  Level Miami Center
11:43AM 25.4061 -81.0544 39° Northeast 239 275 9,000  Level Miami Center
11:44AM 25.4597 -81.0058 42° Northeast 239 275 9,000  Level Miami Center
11:45AM 25.5114 -80.9544 41° Northeast 239 275 9,000 -480 Level Miami Center
11:46AM 25.5650 -80.9033 22° Northeast 239 275 8,100 -1,020 Descending Miami Center
11:47AM 25.6283 -80.8756 22° Northeast 239 275 7,000 -1,140 Descending Miami Center
11:48AM 25.6917 -80.8478 25° Northeast 239 275 5,900 -1,080 Descending Miami Center
11:49AM 25.7533 -80.8153 25° Northeast 239 275 4,900 -1,080 Descending Miami Center
11:50AM 25.8125 -80.7847 24° Northeast 239 275 3,800 -960 Descending Miami Center
11:51AM 25.8739 -80.7544 22° Northeast 239 275 3,000 -420 Descending Miami Center
11:52AM 25.9353 -80.7264 19° North 239 275 3,000 60 Level Miami Center
11:52AM 25.9628 -80.7158 41° Northeast 243 280 3,100  Climbing Miami Center
11:53AM 25.9928 -80.6867 50° Northeast 239 275 3,000 -120 Descending Miami Center
11:53AM 26.0100 -80.6642 57° Northeast 228 262 3,000  Level Miami Center
11:54AM 26.0450 -80.6053 58° Northeast 214 246 3,000  Level Miami Center
11:55AM 26.0733 -80.5553 84° East 190 219 3,000  Level Miami Center
11:56AM 26.0789 -80.5000 96° East 189 217 3,000  Level Miami Center
11:57AM 26.0739 -80.4464 88° East 192 221 3,000 -60 Level Miami Center
11:58AM 26.0756 -80.3794 88° East 172 198 2,900 -60 Descending Miami Center
11:59AM 26.0767 -80.3333 93° East 168 193 2,900 -480 Level Miami Center
12:00PM 26.0739 -80.2778 89° East 169 194 2,000 -840 Descending Miami Center
12:01PM 26.0747 -80.2339 92° East 133 153 1,200 -720 Descending Miami Center
12:02PM 26.0736 -80.1967 92° East 123 142 600 -600 Descending Miami Center